TimePST,TemperatureF,Dew PointF,Humidity,Sea Level PressureIn,VisibilityMPH,Wind Direction,Wind SpeedMPH,Gust SpeedMPH,PrecipitationIn,Events,Conditions,WindDirDegrees,DateUTC
12:15 AM,48.2,44.6,87,29.65,10.0,ESE,4.6,-,N/A,,Overcast,110,2012-11-20 08:15:00
12:53 AM,48.0,44.1,86,29.68,10.0,Calm,Calm,-,0.00,,Mostly Cloudy,0,2012-11-20 08:53:00
1:06 AM,46.4,44.6,93,29.65,10.0,Calm,Calm,-,N/A,,Mostly Cloudy,0,2012-11-20 09:06:00
1:33 AM,46.4,44.6,93,29.65,10.0,Variable,3.5,-,N/A,,Overcast,0,2012-11-20 09:33:00
1:41 AM,48.2,44.6,87,29.65,10.0,Calm,Calm,-,N/A,,Overcast,0,2012-11-20 09:41:00
1:53 AM,46.9,44.1,90,29.68,10.0,Calm,Calm,-,N/A,,Overcast,0,2012-11-20 09:53:00
2:53 AM,51.1,43.0,74,29.69,10.0,Variable,6.9,-,N/A,,Overcast,0,2012-11-20 10:53:00
3:53 AM,51.1,43.0,74,29.67,10.0,Variable,4.6,-,N/A,,Overcast,0,2012-11-20 11:53:00
4:53 AM,46.0,43.0,89,29.67,10.0,NNE,9.2,-,N/A,,Overcast,30,2012-11-20 12:53:00
5:24 AM,46.4,42.8,87,29.63,10.0,NNE,9.2,-,N/A,,Overcast,30,2012-11-20 13:24:00
5:45 AM,44.6,42.8,93,29.64,10.0,Calm,Calm,-,N/A,,Mostly Cloudy,0,2012-11-20 13:45:00
5:53 AM,45.0,42.1,90,29.67,10.0,North,4.6,-,N/A,,Mostly Cloudy,360,2012-11-20 13:53:00
6:53 AM,43.0,41.0,93,29.64,10.0,NNE,6.9,-,N/A,,Mostly Cloudy,20,2012-11-20 14:53:00
7:53 AM,45.0,42.1,90,29.61,10.0,NNE,4.6,-,N/A,,Overcast,20,2012-11-20 15:53:00
8:53 AM,46.9,43.0,86,29.59,10.0,NNE,8.1,-,0.00,,Mostly Cloudy,30,2012-11-20 16:53:00
9:53 AM,48.0,43.0,83,29.55,10.0,ENE,4.6,-,N/A,,Partly Cloudy,60,2012-11-20 17:53:00
10:53 AM,46.4,42.8,87,29.49,10.0,NNE,8.1,-,N/A,,Partly Cloudy,30,2012-11-20 18:53:00
11:53 AM,48.0,42.1,80,29.50,10.0,NNE,5.8,-,N/A,,Overcast,20,2012-11-20 19:53:00
12:53 PM,54.0,42.1,64,29.50,10.0,SE,15.0,21.9,N/A,,Overcast,140,2012-11-20 20:53:00
1:53 PM,50.0,43.0,77,29.52,10.0,SE,19.6,25.3,0.00,,Overcast,130,2012-11-20 21:53:00
2:53 PM,53.1,43.0,69,29.52,10.0,SSE,23.0,35.7,0.00,,Partly Cloudy,150,2012-11-20 22:53:00
3:53 PM,52.0,42.1,69,29.57,10.0,SSE,24.2,35.7,N/A,,Partly Cloudy,150,2012-11-20 23:53:00
4:53 PM,51.1,41.0,68,29.60,10.0,SSE,23.0,31.1,N/A,,Mostly Cloudy,150,2012-11-21 00:53:00
4:57 PM,51.8,41.0,67,29.58,10.0,SSE,21.9,32.2,N/A,,Mostly Cloudy,150,2012-11-21 00:57:00
5:05 PM,51.8,41.0,67,29.58,10.0,SSE,17.3,32.2,N/A,,Overcast,150,2012-11-21 01:05:00
5:50 PM,51.8,41.0,67,29.58,10.0,SSE,18.4,28.8,N/A,,Overcast,150,2012-11-21 01:50:00
5:53 PM,51.1,41.0,68,29.60,10.0,SSE,15.0,28.8,N/A,,Overcast,160,2012-11-21 01:53:00
6:53 PM,51.1,39.9,66,29.60,10.0,SSE,23.0,35.7,N/A,,Overcast,160,2012-11-21 02:53:00
7:38 PM,48.2,44.6,87,29.61,10.0,South,11.5,23.0,0.00,Rain,Light Rain,170,2012-11-21 03:38:00
7:50 PM,48.2,44.6,87,29.61,10.0,South,10.4,-,0.00,,Overcast,180,2012-11-21 03:50:00
7:53 PM,48.0,44.1,86,29.63,10.0,South,9.2,-,0.00,,Overcast,170,2012-11-21 03:53:00
8:53 PM,48.9,42.1,77,29.64,10.0,South,10.4,19.6,N/A,,Overcast,170,2012-11-21 04:53:00
9:07 PM,48.2,42.8,82,29.62,10.0,South,6.9,-,N/A,,Overcast,180,2012-11-21 05:07:00
9:53 PM,48.9,39.9,71,29.64,10.0,South,9.2,19.6,N/A,,Overcast,170,2012-11-21 05:53:00
10:53 PM,48.9,39.9,71,29.63,10.0,SSE,11.5,21.9,N/A,,Overcast,160,2012-11-21 06:53:00
11:24 PM,50.0,39.2,66,29.60,10.0,SSE,15.0,19.6,N/A,,Overcast,160,2012-11-21 07:24:00
11:53 PM,48.0,39.9,74,29.61,10.0,ENE,4.6,-,N/A,,Overcast,60,2012-11-21 07:53:00